Time;durP1;ratioP1;P1;durP2;ratioP2;P2;SDS_P1;SDS_P2;PMS_P1;PMS_P2;Temp;Humidity;BMP_temperature;BMP_pressure;BME280_temperature;BME280_humidity;BME280_pressure;Samples;Min_cycle;Max_cycle;Signal;HPM_P1;HPM_P2
2022/11/28 00:00:12;;;;;;;12.50;7.40;;;5.80;85.00;;;;;;5047993;28;20506;-61
2022/11/28 00:02:39;;;;;;;15.55;8.57;;;5.80;85.00;;;;;;5045154;28;20102;-59
2022/11/28 00:05:15;;;;;;;12.35;7.25;;;5.80;85.00;;;;;;5047293;28;20041;-60
2022/11/28 00:07:42;;;;;;;14.00;7.75;;;5.80;85.10;;;;;;5048387;28;20061;-60
2022/11/28 00:10:09;;;;;;;13.15;7.05;;;5.80;85.00;;;;;;5047771;28;20065;-58
2022/11/28 00:12:38;;;;;;;13.10;7.80;;;5.80;85.00;;;;;;5047337;28;20056;-60
2022/11/28 00:15:05;;;;;;;12.00;7.55;;;5.80;84.90;;;;;;5047752;28;20056;-60
2022/11/28 00:17:34;;;;;;;13.30;7.03;;;5.70;84.80;;;;;;5045630;28;20087;-61
2022/11/28 00:20:01;;;;;;;14.15;7.70;;;5.70;85.00;;;;;;5047841;28;20045;-60
2022/11/28 00:22:34;;;;;;;12.18;6.97;;;5.80;85.10;;;;;;5047383;28;20057;-60
2022/11/28 00:25:01;;;;;;;11.48;6.80;;;5.80;85.00;;;;;;5047967;28;20132;-60
2022/11/28 00:27:28;;;;;;;13.23;8.13;;;5.80;85.00;;;;;;5047403;28;20041;-59
2022/11/28 00:29:57;;;;;;;12.73;7.57;;;5.80;85.00;;;;;;5026681;28;20047;-60
2022/11/28 00:32:24;;;;;;;15.52;7.40;;;5.80;85.20;;;;;;5048156;28;20148;-59
2022/11/28 00:34:51;;;;;;;14.93;7.32;;;5.70;85.00;;;;;;5048499;28;20044;-60
2022/11/28 00:37:18;;;;;;;13.68;7.32;;;5.80;85.20;;;;;;5047223;28;20053;-59
2022/11/28 00:39:47;;;;;;;12.60;6.90;;;5.70;85.20;;;;;;5048601;28;20122;-59
2022/11/28 00:42:15;;;;;;;13.98;8.18;;;5.70;85.10;;;;;;5049305;28;20188;-60
2022/11/28 00:44:42;;;;;;;14.00;7.32;;;5.70;85.10;;;;;;5049720;28;21211;-60
2022/11/28 00:47:10;;;;;;;13.27;7.35;;;5.70;85.10;;;;;;5046560;28;20083;-60
2022/11/28 00:49:37;;;;;;;13.43;7.75;;;5.70;84.90;;;;;;5049249;28;20037;-59
2022/11/28 00:52:04;;;;;;;14.52;7.57;;;5.70;85.20;;;;;;5049640;28;20106;-60
2022/11/28 00:54:31;;;;;;;14.13;7.57;;;5.70;85.30;;;;;;5048463;28;20556;-60
2022/11/28 00:56:58;;;;;;;12.07;7.28;;;5.70;85.30;;;;;;5049395;28;20056;-60
2022/11/28 00:59:25;;;;;;;12.20;7.55;;;5.70;85.10;;;;;;5049214;28;20124;-60
2022/11/28 01:01:52;;;;;;;13.20;7.18;;;5.70;85.10;;;;;;5048568;28;20044;-60
2022/11/28 01:04:20;;;;;;;12.75;7.32;;;5.80;85.10;;;;;;5048198;28;20133;-61
2022/11/28 01:06:49;;;;;;;11.65;7.40;;;5.80;85.00;;;;;;5049030;28;20041;-63
2022/11/28 01:09:19;;;;;;;12.32;7.20;;;5.80;85.00;;;;;;5048516;28;20052;-63
2022/11/28 01:11:47;;;;;;;12.27;7.20;;;5.80;85.10;;;;;;5048014;28;20052;-62
2022/11/28 01:14:15;;;;;;;12.05;7.40;;;5.80;85.20;;;;;;5049709;28;20123;-64
2022/11/28 01:16:42;;;;;;;13.88;7.72;;;5.70;85.10;;;;;;5049084;28;20061;-62
2022/11/28 01:19:09;;;;;;;15.50;8.00;;;5.80;85.30;;;;;;5049110;28;20069;-60
2022/11/28 01:21:38;;;;;;;13.32;7.68;;;5.70;85.10;;;;;;5047815;28;20111;-62
2022/11/28 01:24:11;;;;;;;11.88;6.75;;;5.80;85.20;;;;;;5048565;28;20047;-63
2022/11/28 01:26:39;;;;;;;13.02;7.35;;;5.70;85.30;;;;;;5048807;28;20045;-63
2022/11/28 01:29:06;;;;;;;11.23;7.10;;;5.80;85.30;;;;;;5050909;28;20146;-63
2022/11/28 01:31:33;;;;;;;13.02;6.90;;;5.80;85.30;;;;;;5051933;28;20147;-60
2022/11/28 01:34:00;;;;;;;13.52;7.75;;;5.80;85.30;;;;;;5052811;28;20071;-60
2022/11/28 01:36:29;;;;;;;13.13;7.80;;;5.80;85.40;;;;;;5051360;28;20041;-72
2022/11/28 01:38:57;;;;;;;15.65;7.90;;;5.80;85.40;;;;;;5052786;28;20487;-72
2022/11/28 01:41:26;;;;;;;13.90;7.40;;;5.80;85.30;;;;;;5049879;28;20044;-61
2022/11/28 01:44:01;;;;;;;11.93;7.35;;;5.80;85.30;;;;;;5049050;28;20055;-59
2022/11/28 01:46:30;;;;;;;15.82;8.38;;;5.80;85.40;;;;;;5049277;28;20065;-60
2022/11/28 01:49:01;;;;;;;13.25;7.32;;;5.70;85.50;;;;;;5049477;28;20041;-61
2022/11/28 01:51:30;;;;;;;14.68;8.10;;;5.80;85.40;;;;;;5047428;28;20048;-60
2022/11/28 01:53:59;;;;;;;14.95;8.13;;;5.70;85.40;;;;;;5046877;28;20098;-60
2022/11/28 01:56:31;;;;;;;16.38;7.82;;;5.70;85.40;;;;;;5050699;28;20065;-61
2022/11/28 01:59:02;;;;;;;15.38;8.77;;;5.70;85.40;;;;;;5048067;28;20052;-59
2022/11/28 02:01:29;;;;;;;14.00;8.25;;;5.70;85.50;;;;;;5049737;28;20049;-65
2022/11/28 02:03:58;;;;;;;14.68;8.18;;;5.70;85.40;;;;;;5032814;28;20044;-65
2022/11/28 02:06:27;;;;;;;13.98;7.75;;;5.70;85.40;;;;;;5051670;28;20053;-64
2022/11/28 02:08:55;;;;;;;15.13;8.38;;;5.70;85.50;;;;;;5032581;28;20748;-64
2022/11/28 02:11:47;;;;;;;14.60;7.38;;;5.70;85.60;;;;;;5051313;28;20135;-68
2022/11/28 02:14:24;;;;;;;13.07;7.97;;;5.70;85.40;;;;;;5052117;28;20049;-68
2022/11/28 02:17:04;;;;;;;15.75;8.00;;;5.70;85.50;;;;;;5046004;28;20602;-67
2022/11/28 02:20:04;;;;;;;15.88;6.97;;;5.70;85.30;;;;;;5050557;28;20164;-68
2022/11/28 02:22:37;;;;;;;15.05;8.00;;;5.70;85.30;;;;;;5051374;28;20110;-67
2022/11/28 02:25:22;;;;;;;13.32;7.32;;;5.70;85.20;;;;;;5052113;28;20055;-68
2022/11/28 02:28:35;;;;;;;15.18;7.80;;;5.70;85.40;;;;;;5048753;28;20095;-70
2022/11/28 02:31:11;;;;;;;18.65;7.60;;;5.70;85.30;;;;;;5051805;28;20045;-62
2022/11/28 02:33:43;;;;;;;14.32;8.02;;;5.70;85.30;;;;;;5052133;28;20088;-62
2022/11/28 02:36:14;;;;;;;13.95;7.45;;;5.70;85.30;;;;;;5051455;28;20049;-60
2022/11/28 02:38:57;;;;;;;14.48;8.07;;;5.70;85.30;;;;;;5051458;28;20075;-60
2022/11/28 02:41:32;;;;;;;12.95;7.30;;;5.70;85.40;;;;;;5051487;28;20094;-58
2022/11/28 02:44:08;;;;;;;12.70;6.95;;;5.70;85.10;;;;;;5049464;28;20053;-61
2022/11/28 02:46:45;;;;;;;14.65;7.63;;;5.70;85.30;;;;;;5051838;28;20049;-60
2022/11/28 02:49:18;;;;;;;14.23;6.95;;;5.70;85.30;;;;;;5052099;28;20045;-61
2022/11/28 02:51:49;;;;;;;13.68;7.32;;;5.70;85.30;;;;;;5043907;28;20403;-60
2022/11/28 02:54:18;;;;;;;15.77;7.32;;;5.70;85.30;;;;;;5050455;28;20053;-60
2022/11/28 02:56:48;;;;;;;13.98;7.18;;;5.70;85.30;;;;;;5050255;28;20049;-60
2022/11/28 02:59:25;;;;;;;;;;;5.70;85.40;;;;;;5051231;28;20128;-61
2022/11/28 03:01:52;;;;;;;15.18;7.53;;;5.70;85.30;;;;;;5048784;28;19928;-59
2022/11/28 03:04:28;;;;;;;14.18;7.60;;;5.60;85.30;;;;;;5050971;28;20056;-61
2022/11/28 03:07:03;;;;;;;12.50;7.07;;;5.60;85.40;;;;;;5050078;28;20041;-65
2022/11/28 03:10:02;;;;;;;15.32;7.65;;;5.70;85.30;;;;;;5050808;28;20052;-64
2022/11/28 03:12:41;;;;;;;13.55;7.68;;;5.70;85.30;;;;;;5050740;28;20133;-65
2022/11/28 03:15:09;;;;;;;17.33;7.55;;;5.70;85.30;;;;;;5050382;28;20410;-64
2022/11/28 03:17:52;;;;;;;16.55;7.07;;;5.70;85.30;;;;;;5046699;28;20045;-64
2022/11/28 03:20:25;;;;;;;14.23;7.47;;;5.70;85.30;;;;;;5047466;28;20029;-63
2022/11/28 03:23:02;;;;;;;12.75;7.53;;;5.70;85.20;;;;;;5047047;28;20056;-65
2022/11/28 03:25:37;;;;;;;14.98;7.95;;;5.70;85.40;;;;;;5046586;28;20074;-61
2022/11/28 03:28:14;;;;;;;16.02;7.25;;;5.70;85.20;;;;;;5048125;28;20060;-61
2022/11/28 03:30:46;;;;;;;14.35;7.18;;;5.70;85.20;;;;;;5047484;28;20045;-61
2022/11/28 03:33:16;;;;;;;16.90;7.47;;;5.70;85.20;;;;;;5046638;28;20044;-61
2022/11/28 03:35:49;;;;;;;15.75;7.97;;;5.70;85.30;;;;;;5043621;28;20045;-72
2022/11/28 03:38:20;;;;;;;14.02;7.32;;;5.70;85.30;;;;;;5048200;28;20067;-71
2022/11/28 03:40:50;;;;;;;15.43;7.32;;;5.60;85.30;;;;;;5047397;28;20102;-60
2022/11/28 03:43:22;;;;;;;14.10;7.32;;;5.70;85.30;;;;;;5043749;28;21791;-61
2022/11/28 03:45:52;;;;;;;14.50;8.25;;;5.70;85.40;;;;;;5046112;28;20124;-73
2022/11/28 03:48:25;;;;;;;15.55;7.82;;;5.70;85.40;;;;;;5048061;28;20051;-72
2022/11/28 03:50:59;;;;;;;12.85;6.85;;;5.70;85.50;;;;;;5047310;28;20151;-62
2022/11/28 03:53:30;;;;;;;15.07;7.88;;;5.70;85.40;;;;;;5048333;28;20057;-63
2022/11/28 03:56:04;;;;;;;15.68;8.10;;;5.70;85.40;;;;;;5048823;28;20049;-69
2022/11/28 03:58:35;;;;;;;14.88;6.97;;;5.70;85.40;;;;;;5047987;28;20052;-68
2022/11/28 04:01:10;;;;;;;13.98;7.22;;;5.70;85.50;;;;;;5048910;28;20060;-65
2022/11/28 04:03:43;;;;;;;16.30;7.13;;;5.70;85.50;;;;;;5050987;28;20486;-64
2022/11/28 04:06:19;;;;;;;13.52;7.60;;;5.70;85.30;;;;;;5049412;28;20047;-60
2022/11/28 04:08:52;;;;;;;14.35;6.55;;;5.70;85.40;;;;;;5048121;28;20061;-60
2022/11/28 04:11:25;;;;;;;13.85;7.10;;;5.70;85.40;;;;;;5050475;28;20128;-65
2022/11/28 04:13:56;;;;;;;13.23;7.25;;;5.70;85.30;;;;;;5050127;28;20150;-65
2022/11/28 04:16:31;;;;;;;13.50;7.13;;;5.60;85.30;;;;;;5049478;28;20048;-64
2022/11/28 04:19:02;;;;;;;15.27;7.53;;;5.70;85.30;;;;;;5049648;28;20048;-65
2022/11/28 04:21:34;;;;;;;13.10;6.78;;;5.60;85.20;;;;;;5049468;28;20407;-61
2022/11/28 04:24:04;;;;;;;13.80;7.05;;;5.70;85.20;;;;;;5049036;28;20060;-61
2022/11/28 04:26:34;;;;;;;13.77;6.85;;;5.60;85.30;;;;;;5046422;28;20504;-63
2022/11/28 04:29:07;;;;;;;13.88;7.88;;;5.70;85.40;;;;;;5046260;28;20043;-63
2022/11/28 04:31:35;;;;;;;16.50;7.05;;;5.70;85.30;;;;;;5049744;28;20495;-63
2022/11/28 04:34:05;;;;;;;13.70;7.00;;;5.70;85.20;;;;;;5050069;28;20053;-62
2022/11/28 04:36:37;;;;;;;12.25;7.00;;;5.70;85.30;;;;;;5049020;28;20041;-63
2022/11/28 04:39:12;;;;;;;14.98;8.05;;;5.60;85.30;;;;;;5049228;28;20041;-63
2022/11/28 04:41:42;;;;;;;14.05;6.82;;;5.70;85.30;;;;;;5050060;28;20052;-71
2022/11/28 04:44:13;;;;;;;15.32;8.02;;;5.60;85.30;;;;;;5049442;28;20154;-72
2022/11/28 04:46:44;;;;;;;14.95;7.45;;;5.60;85.30;;;;;;5050894;28;20055;-72
2022/11/28 04:49:12;;;;;;;13.88;6.82;;;5.60;85.50;;;;;;5049421;28;20045;-71
2022/11/28 04:51:48;;;;;;;13.52;6.80;;;5.70;85.30;;;;;;5049682;28;20045;-60
2022/11/28 04:54:22;;;;;;;14.93;6.95;;;5.60;85.20;;;;;;5049411;28;20049;-60
2022/11/28 04:56:54;;;;;;;13.23;6.13;;;5.60;85.30;;;;;;5048792;28;20091;-60
2022/11/28 04:59:25;;;;;;;14.45;6.97;;;5.60;85.20;;;;;;5049168;28;20073;-60
2022/11/28 05:01:52;;;;;;;15.75;7.57;;;5.60;85.20;;;;;;5046815;28;20600;-60
2022/11/28 05:04:19;;;;;;;13.82;7.15;;;5.60;85.40;;;;;;5048173;28;20139;-61
2022/11/28 05:06:47;;;;;;;12.98;7.35;;;5.60;85.40;;;;;;5033478;28;20060;-59
2022/11/28 05:09:14;;;;;;;17.08;7.13;;;5.60;85.20;;;;;;5051448;28;20056;-60
2022/11/28 05:11:41;;;;;;;14.35;7.60;;;5.60;85.20;;;;;;5051527;28;20055;-60
2022/11/28 05:14:08;;;;;;;15.60;7.60;;;5.60;85.20;;;;;;5051517;28;20053;-59
2022/11/28 05:16:36;;;;;;;14.90;7.65;;;5.60;85.10;;;;;;5052070;28;20144;-59
2022/11/28 05:19:03;;;;;;;14.05;6.60;;;5.60;85.30;;;;;;5052433;28;20049;-60
2022/11/28 05:21:30;;;;;;;15.25;7.63;;;5.60;85.20;;;;;;5050847;28;20057;-60
2022/11/28 05:23:58;;;;;;;14.05;7.88;;;5.60;85.30;;;;;;5050902;28;20049;-60
2022/11/28 05:26:25;;;;;;;12.13;6.80;;;5.70;85.20;;;;;;5052401;28;20060;-60
2022/11/28 05:28:52;;;;;;;16.85;7.68;;;5.60;85.00;;;;;;5051453;28;20049;-59
2022/11/28 05:31:21;;;;;;;15.27;7.55;;;5.50;85.00;;;;;;5048486;28;20033;-59
2022/11/28 05:33:48;;;;;;;12.77;7.28;;;5.50;85.10;;;;;;5050722;28;20048;-59
2022/11/28 05:36:16;;;;;;;15.50;6.93;;;5.60;85.20;;;;;;5051940;28;20049;-59
2022/11/28 05:38:44;;;;;;;14.45;7.22;;;5.50;85.10;;;;;;5050371;28;20126;-60
2022/11/28 05:41:20;;;;;;;17.90;7.70;;;5.50;85.00;;;;;;5051380;28;20041;-59
2022/11/28 05:43:46;;;;;;;15.38;7.95;;;5.50;85.20;;;;;;5053358;28;20076;-59
2022/11/28 05:46:13;;;;;;;13.05;6.82;;;5.50;85.30;;;;;;5053917;28;20052;-59
2022/11/28 05:48:40;;;;;;;13.65;7.47;;;5.50;85.10;;;;;;5051797;28;20045;-59
2022/11/28 05:51:08;;;;;;;14.23;6.90;;;5.50;85.10;;;;;;5035992;28;20044;-59
2022/11/28 05:53:38;;;;;;;16.98;7.53;;;5.50;85.10;;;;;;5053431;28;20132;-58
2022/11/28 05:56:08;;;;;;;12.60;6.90;;;5.50;85.10;;;;;;5054044;28;20069;-60
2022/11/28 05:58:37;;;;;;;14.85;7.45;;;5.50;85.20;;;;;;5052811;28;20413;-60
2022/11/28 06:01:13;;;;;;;14.77;7.88;;;5.50;85.20;;;;;;5052699;28;20045;-61
2022/11/28 06:03:40;;;;;;;16.15;7.88;;;5.50;85.20;;;;;;5052541;28;20081;-59
2022/11/28 06:06:12;;;;;;;14.30;7.10;;;5.50;85.30;;;;;;5051313;28;20055;-60
2022/11/28 06:08:41;;;;;;;15.90;7.50;;;5.50;85.30;;;;;;5052280;28;20049;-59
2022/11/28 06:11:09;;;;;;;14.35;7.97;;;5.50;85.30;;;;;;5052437;28;20041;-62
2022/11/28 06:13:41;;;;;;;16.00;8.43;;;5.50;85.30;;;;;;5052403;28;20041;-60
2022/11/28 06:16:09;;;;;;;14.65;7.95;;;5.50;85.30;;;;;;5033187;28;20517;-60
2022/11/28 06:18:36;;;;;;;16.58;8.90;;;5.50;85.20;;;;;;5051962;28;20117;-59
2022/11/28 06:21:04;;;;;;;14.90;7.45;;;5.50;85.10;;;;;;5050202;28;20181;-58
2022/11/28 06:23:31;;;;;;;14.43;7.45;;;5.50;85.20;;;;;;5050653;28;20049;-59
2022/11/28 06:26:04;;;;;;;13.32;7.50;;;5.40;85.10;;;;;;5051967;28;20053;-60
2022/11/28 06:28:37;;;;;;;13.13;7.72;;;5.50;85.00;;;;;;5052318;28;20064;-58
2022/11/28 06:31:10;;;;;;;15.30;7.85;;;5.50;85.20;;;;;;5050919;28;20041;-60
2022/11/28 06:33:37;;;;;;;16.25;8.23;;;5.40;85.30;;;;;;5051671;28;20411;-61
2022/11/28 06:36:06;;;;;;;17.48;7.72;;;5.50;85.30;;;;;;5051941;28;20467;-60
2022/11/28 06:38:33;;;;;;;15.27;7.63;;;5.50;85.20;;;;;;5051756;28;20041;-59
2022/11/28 06:41:01;;;;;;;17.90;8.73;;;5.50;85.30;;;;;;5049577;28;20071;-60
2022/11/28 06:43:29;;;;;;;15.73;7.65;;;5.40;85.30;;;;;;5049356;28;20051;-60
2022/11/28 06:45:56;;;;;;;17.67;8.50;;;5.40;85.30;;;;;;5050049;28;20041;-60
2022/11/28 06:48:25;;;;;;;16.63;8.63;;;5.40;85.30;;;;;;5050196;28;20029;-58
2022/11/28 06:50:53;;;;;;;14.50;8.00;;;5.40;85.30;;;;;;5049883;28;20124;-60
2022/11/28 06:53:20;;;;;;;14.10;7.47;;;5.40;85.30;;;;;;5050087;28;20556;-60
2022/11/28 06:55:47;;;;;;;14.70;7.50;;;5.40;85.30;;;;;;5048806;28;20048;-60
2022/11/28 06:58:14;;;;;;;16.65;7.90;;;5.40;85.20;;;;;;5050177;28;20041;-60
2022/11/28 07:00:41;;;;;;;15.35;7.35;;;5.40;85.40;;;;;;5049120;28;20051;-61
2022/11/28 07:03:08;;;;;;;14.20;7.85;;;5.40;85.40;;;;;;5049863;28;20041;-61
2022/11/28 07:05:36;;;;;;;13.73;7.38;;;5.40;85.30;;;;;;5049852;28;20049;-61
2022/11/28 07:08:03;;;;;;;14.00;7.35;;;5.40;85.40;;;;;;5047950;28;20080;-61
2022/11/28 07:10:30;;;;;;;14.75;7.60;;;5.50;85.30;;;;;;5048167;28;20069;-58
2022/11/28 07:13:00;;;;;;;14.43;7.75;;;5.40;85.40;;;;;;5049351;28;20415;-60
2022/11/28 07:15:29;;;;;;;13.70;7.43;;;5.40;85.40;;;;;;5048808;28;20040;-60
2022/11/28 07:17:56;;;;;;;14.80;7.95;;;5.40;85.40;;;;;;5049449;28;20049;-60
2022/11/28 07:20:22;;;;;;;17.90;8.52;;;5.40;85.40;;;;;;5050483;28;20156;-63
2022/11/28 07:22:52;;;;;;;15.93;7.80;;;5.40;85.40;;;;;;5051843;28;20087;-63
2022/11/28 07:25:19;;;;;;;15.85;7.80;;;5.40;85.50;;;;;;5048821;28;20048;-63
2022/11/28 07:27:45;;;;;;;18.67;8.20;;;5.40;85.40;;;;;;5050432;28;20115;-63
2022/11/28 07:30:13;;;;;;;16.70;8.90;;;5.40;85.50;;;;;;5050527;28;20033;-63
2022/11/28 07:32:40;;;;;;;18.17;8.30;;;5.40;85.40;;;;;;5049623;28;20052;-63
2022/11/28 07:35:08;;;;;;;14.50;8.07;;;5.40;85.50;;;;;;5050750;28;20045;-63
2022/11/28 07:37:35;;;;;;;17.25;8.60;;;5.40;85.50;;;;;;5050283;28;20045;-62
2022/11/28 07:40:04;;;;;;;17.23;8.85;;;5.40;85.40;;;;;;5050259;28;20083;-63
2022/11/28 07:42:32;;;;;;;14.48;7.63;;;5.50;85.40;;;;;;5049515;28;20103;-63
2022/11/28 07:45:05;;;;;;;18.73;9.23;;;5.40;85.20;;;;;;5048982;28;20487;-63
2022/11/28 07:47:34;;;;;;;17.45;8.73;;;5.40;85.40;;;;;;5051099;28;20141;-63
2022/11/28 07:50:01;;;;;;;15.80;8.38;;;5.40;85.50;;;;;;5049314;28;20049;-63
2022/11/28 07:52:30;;;;;;;18.42;8.55;;;5.50;85.30;;;;;;5049997;28;20049;-64
2022/11/28 07:54:57;;;;;;;15.73;8.40;;;5.50;85.30;;;;;;5050895;28;20049;-62
2022/11/28 07:57:25;;;;;;;16.77;8.63;;;5.50;85.20;;;;;;5049928;28;20043;-62
2022/11/28 07:59:52;;;;;;;16.85;8.35;;;5.50;85.40;;;;;;5047737;28;20474;-62
2022/11/28 08:02:19;;;;;;;15.23;8.18;;;5.50;85.30;;;;;;5049981;28;20072;-62
2022/11/28 08:04:46;;;;;;;16.50;8.38;;;5.50;85.40;;;;;;5050346;28;20060;-62
2022/11/28 08:07:14;;;;;;;15.55;8.05;;;5.50;85.40;;;;;;5049467;28;20074;-62
2022/11/28 08:09:41;;;;;;;15.50;8.30;;;5.50;85.30;;;;;;5049949;28;20057;-63
2022/11/28 08:12:08;;;;;;;17.08;8.63;;;5.50;85.30;;;;;;5050214;28;20049;-63
2022/11/28 08:14:36;;;;;;;16.77;8.73;;;5.60;85.40;;;;;;5050690;28;20106;-64
2022/11/28 08:17:03;;;;;;;17.35;8.82;;;5.60;85.30;;;;;;5044953;28;20135;-62
2022/11/28 08:19:30;;;;;;;15.52;8.70;;;5.60;85.40;;;;;;5048271;28;20064;-63
2022/11/28 08:21:57;;;;;;;19.20;9.80;;;5.60;85.30;;;;;;5047529;28;20481;-61
2022/11/28 08:24:24;;;;;;;15.23;8.63;;;5.60;85.20;;;;;;5047507;28;20136;-65
2022/11/28 08:26:51;;;;;;;17.88;8.90;;;5.60;85.20;;;;;;5047955;28;20041;-62
2022/11/28 08:29:18;;;;;;;16.92;8.88;;;5.60;85.20;;;;;;5046642;28;20049;-62
2022/11/28 08:31:47;;;;;;;15.70;8.00;;;5.70;85.10;;;;;;5047262;28;20139;-63
2022/11/28 08:34:14;;;;;;;18.40;8.85;;;5.70;85.20;;;;;;5046827;28;20037;-63
2022/11/28 08:36:42;;;;;;;16.70;7.95;;;5.70;85.10;;;;;;5047336;28;20128;-64
2022/11/28 08:39:10;;;;;;;14.88;7.80;;;5.70;85.10;;;;;;5047270;28;20116;-62
2022/11/28 08:41:37;;;;;;;13.57;7.47;;;5.70;85.10;;;;;;5047940;28;20061;-60
2022/11/28 08:44:04;;;;;;;15.48;7.75;;;5.70;85.10;;;;;;5047498;28;20132;-60
2022/11/28 08:46:31;;;;;;;15.95;7.78;;;5.70;85.00;;;;;;5048059;28;20056;-60
2022/11/28 08:49:01;;;;;;;13.90;7.85;;;5.70;85.00;;;;;;5048331;28;20049;-60
2022/11/28 08:51:29;;;;;;;17.60;8.25;;;5.70;85.00;;;;;;5045724;28;20041;-69
2022/11/28 08:53:56;;;;;;;15.40;7.75;;;5.70;85.10;;;;;;5047857;28;20495;-68
2022/11/28 08:56:24;;;;;;;14.85;7.90;;;5.70;85.00;;;;;;5047819;28;20488;-68
2022/11/28 08:58:51;;;;;;;16.13;7.60;;;5.70;85.10;;;;;;5046425;28;20045;-69
2022/11/28 09:01:21;;;;;;;15.93;8.13;;;5.80;85.10;;;;;;5050290;28;20075;-64
2022/11/28 09:03:49;;;;;;;17.75;8.45;;;5.80;85.00;;;;;;5031710;28;20055;-64
2022/11/28 09:06:17;;;;;;;16.27;8.15;;;5.80;85.00;;;;;;5049757;28;20037;-64
2022/11/28 09:08:45;;;;;;;17.60;8.57;;;5.80;84.90;;;;;;5047663;28;20057;-63
2022/11/28 09:11:16;;;;;;;15.80;9.07;;;5.80;84.90;;;;;;5048970;28;20049;-64
2022/11/28 09:13:43;;;;;;;18.25;9.00;;;5.80;85.00;;;;;;5049692;28;20228;-64
2022/11/28 09:16:10;;;;;;;18.42;9.43;;;5.90;85.00;;;;;;5049129;28;20037;-64
2022/11/28 09:18:37;;;;;;;19.08;9.20;;;5.90;85.00;;;;;;5046868;28;20044;-63
2022/11/28 09:21:08;;;;;;;17.60;9.25;;;5.90;84.90;;;;;;5049767;28;20049;-69
2022/11/28 09:23:36;;;;;;;16.55;9.35;;;5.90;84.90;;;;;;5045986;28;20076;-69
2022/11/28 09:26:08;;;;;;;17.27;10.00;;;6.00;84.90;;;;;;5046867;28;20542;-62
2022/11/28 09:28:35;;;;;;;17.30;9.52;;;6.00;84.80;;;;;;5049607;28;20132;-63
2022/11/28 09:31:03;;;;;;;19.73;9.60;;;5.90;84.70;;;;;;5048877;28;20466;-60
2022/11/28 09:33:31;;;;;;;16.83;8.55;;;6.00;84.70;;;;;;5049416;28;20041;-62
2022/11/28 09:35:58;;;;;;;15.32;8.52;;;6.00;84.60;;;;;;5049112;28;20053;-65
2022/11/28 09:38:26;;;;;;;19.52;9.00;;;6.00;84.50;;;;;;5050024;28;20048;-65
2022/11/28 09:40:54;;;;;;;16.77;8.40;;;6.00;84.50;;;;;;5048959;28;20106;-69
2022/11/28 09:43:33;;;;;;;15.02;8.27;;;6.00;84.60;;;;;;5047247;28;20055;-69
2022/11/28 09:46:05;;;;;;;15.57;7.88;;;6.10;84.60;;;;;;5049641;28;20102;-71
2022/11/28 09:48:37;;;;;;;15.80;8.70;;;6.10;84.60;;;;;;5049276;28;20048;-72
2022/11/28 09:51:22;;;;;;;16.85;8.45;;;6.10;84.50;;;;;;5051972;28;20095;-65
2022/11/28 09:53:58;;;;;;;16.33;7.90;;;6.10;84.40;;;;;;5051379;28;20064;-64
2022/11/28 09:56:27;;;;;;;18.02;8.80;;;6.10;84.40;;;;;;5053413;28;20091;-63
2022/11/28 09:58:57;;;;;;;17.70;9.35;;;6.20;84.50;;;;;;5051844;28;20158;-62
2022/11/28 10:01:31;;;;;;;16.13;8.27;;;6.10;84.70;;;;;;5046233;28;20041;-61
2022/11/28 10:04:02;;;;;;;17.15;8.52;;;6.20;84.50;;;;;;5049475;28;20056;-62
2022/11/28 10:06:36;;;;;;;16.33;8.25;;;6.20;84.50;;;;;;5049112;28;20096;-62
2022/11/28 10:09:25;;;;;;;15.25;8.27;;;6.20;84.50;;;;;;5049691;28;20103;-61
2022/11/28 10:12:03;;;;;;;17.08;8.57;;;6.20;84.40;;;;;;5051279;28;20037;-60
2022/11/28 10:15:08;;;;;;;18.10;7.72;;;6.30;84.30;;;;;;5050346;28;20120;-60
2022/11/28 10:17:45;;;;;;;14.60;8.00;;;6.30;84.20;;;;;;5048469;28;20041;-59
2022/11/28 10:20:18;;;;;;;15.65;8.55;;;6.30;84.10;;;;;;5048889;28;20102;-71
2022/11/28 10:22:50;;;;;;;16.15;8.18;;;6.30;84.20;;;;;;5047651;28;20081;-71
2022/11/28 10:25:20;;;;;;;16.42;8.63;;;6.20;84.30;;;;;;5049904;28;20414;-64
2022/11/28 10:27:50;;;;;;;17.07;8.73;;;6.30;84.40;;;;;;5051201;28;20419;-64
2022/11/28 10:30:21;;;;;;;16.50;8.75;;;6.40;84.30;;;;;;5050389;28;20044;-61
2022/11/28 10:32:55;;;;;;;18.13;9.55;;;6.30;84.20;;;;;;5048994;28;20124;-61
2022/11/28 10:35:28;;;;;;;17.95;9.35;;;6.40;84.20;;;;;;5049827;28;20045;-67
2022/11/28 10:37:55;;;;;;;15.73;8.90;;;6.40;84.10;;;;;;5050031;28;20045;-69
2022/11/28 10:40:28;;;;;;;16.98;9.45;;;6.40;84.20;;;;;;5049069;28;20068;-72
2022/11/28 10:43:02;;;;;;;14.68;7.88;;;6.40;84.20;;;;;;5051695;28;20041;-71
2022/11/28 10:45:36;;;;;;;16.70;9.10;;;6.50;84.20;;;;;;5051516;28;20037;-71
2022/11/28 10:48:19;;;;;;;16.08;8.43;;;6.60;84.10;;;;;;5051455;28;20073;-72
2022/11/28 10:50:53;;;;;;;16.70;8.82;;;6.60;84.00;;;;;;5050333;28;20045;-71
2022/11/28 10:53:33;;;;;;;14.88;8.55;;;6.60;84.10;;;;;;5050936;28;20119;-71
2022/11/28 10:56:11;;;;;;;17.98;9.27;;;6.60;84.00;;;;;;5048598;28;20526;-69
2022/11/28 10:58:47;;;;;;;18.55;9.35;;;6.60;83.90;;;;;;5050088;28;20087;-71
2022/11/28 11:01:14;;;;;;;17.75;9.13;;;6.60;83.90;;;;;;5048765;28;20056;-72
2022/11/28 11:03:41;;;;;;;16.58;8.50;;;6.60;83.90;;;;;;5049231;28;20102;-73
2022/11/28 11:06:09;;;;;;;18.00;10.13;;;6.60;83.90;;;;;;5048739;28;20070;-70
2022/11/28 11:08:40;;;;;;;20.08;9.70;;;6.60;84.10;;;;;;5046967;28;20503;-71
2022/11/28 11:11:24;;;;;;;18.65;9.88;;;6.70;84.10;;;;;;5050756;28;20064;-70
2022/11/28 11:13:59;;;;;;;19.67;10.18;;;6.70;84.00;;;;;;5050343;28;20492;-71
2022/11/28 11:16:45;;;;;;;16.73;9.13;;;6.60;84.10;;;;;;5050928;28;20041;-70
2022/11/28 11:19:23;;;;;;;17.02;9.73;;;6.70;83.90;;;;;;5051017;28;20126;-70
2022/11/28 11:21:59;;;;;;;16.38;8.85;;;6.70;83.70;;;;;;5049890;28;20471;-69
2022/11/28 11:24:26;;;;;;;18.48;8.90;;;6.70;83.90;;;;;;5049552;28;20040;-71
2022/11/28 11:26:53;;;;;;;17.95;9.20;;;6.70;83.90;;;;;;5045285;28;20048;-70
2022/11/28 11:29:29;;;;;;;17.77;9.65;;;6.70;83.90;;;;;;5049276;28;20535;-71
2022/11/28 11:32:02;;;;;;;20.65;10.55;;;6.70;83.70;;;;;;5047745;28;20500;-71
2022/11/28 11:34:37;;;;;;;18.58;10.00;;;6.70;83.70;;;;;;5046375;28;20040;-72
2022/11/28 11:37:20;;;;;;;17.83;9.82;;;6.70;83.80;;;;;;5045563;28;20122;-72
2022/11/28 11:39:50;;;;;;;15.90;9.60;;;6.80;83.70;;;;;;5048956;28;20048;-70
2022/11/28 11:42:21;;;;;;;16.38;9.40;;;6.80;83.60;;;;;;5046885;28;20041;-72
2022/11/28 11:44:50;;;;;;;18.13;9.00;;;6.80;83.70;;;;;;5045607;28;20129;-72
2022/11/28 11:47:20;;;;;;;17.10;9.10;;;6.80;83.70;;;;;;5044871;28;20095;-72
2022/11/28 11:49:48;;;;;;;15.85;8.85;;;6.80;83.70;;;;;;5047955;28;20063;-74
2022/11/28 11:52:20;;;;;;;17.20;9.27;;;6.80;83.60;;;;;;5046885;28;20049;-62
2022/11/28 11:54:57;;;;;;;14.15;8.93;;;6.90;83.50;;;;;;5046277;28;20068;-62
2022/11/28 11:57:26;;;;;;;17.13;9.10;;;6.90;83.50;;;;;;5047935;28;20033;-63
2022/11/28 11:59:59;;;;;;;15.90;8.68;;;7.00;83.40;;;;;;5047417;28;20056;-63
2022/11/28 12:02:31;;;;;;;16.48;9.13;;;7.00;83.40;;;;;;5045421;28;20060;-62
2022/11/28 12:05:04;;;;;;;16.40;8.82;;;7.00;83.50;;;;;;5046030;28;20535;-63
2022/11/28 12:07:38;;;;;;;16.20;9.05;;;7.00;83.40;;;;;;5047448;28;20394;-63
2022/11/28 12:10:12;;;;;;;17.02;8.30;;;7.10;83.30;;;;;;5047015;28;20126;-62
2022/11/28 12:12:40;;;;;;;17.75;9.75;;;7.10;83.20;;;;;;5047547;28;20040;-62
2022/11/28 12:15:18;;;;;;;15.32;8.10;;;7.10;83.10;;;;;;5047494;28;20044;-62
2022/11/28 12:17:58;;;;;;;14.50;8.80;;;7.10;83.00;;;;;;5048086;28;20667;-63
2022/11/28 12:20:37;;;;;;;20.48;9.60;;;7.10;83.20;;;;;;5048290;28;20127;-62
2022/11/28 12:23:21;;;;;;;16.77;8.95;;;7.10;83.10;;;;;;5049817;28;20099;-62
2022/11/28 12:25:54;;;;;;;13.75;7.90;;;7.20;83.20;;;;;;5049837;28;20127;-64
2022/11/28 12:28:30;;;;;;;16.17;9.18;;;7.20;83.20;;;;;;5047527;28;20124;-62
2022/11/28 12:31:12;;;;;;;15.60;8.55;;;7.10;83.20;;;;;;5049234;28;20079;-64
2022/11/28 12:33:49;;;;;;;16.73;8.82;;;7.10;83.30;;;;;;5050468;28;20044;-65
2022/11/28 12:36:25;;;;;;;15.85;8.38;;;7.10;83.20;;;;;;5050445;28;20056;-63
2022/11/28 12:39:02;;;;;;;17.20;9.52;;;7.10;83.30;;;;;;5049700;28;20049;-64
2022/11/28 12:41:46;;;;;;;15.27;8.95;;;7.10;83.30;;;;;;5049668;28;20487;-64
2022/11/28 12:44:21;;;;;;;16.40;9.02;;;7.10;83.30;;;;;;5048880;28;20088;-63
2022/11/28 12:46:59;;;;;;;17.33;9.02;;;7.10;83.40;;;;;;5048790;28;20040;-64
2022/11/28 12:49:38;;;;;;;16.27;8.98;;;7.20;83.30;;;;;;5049516;28;20056;-65
2022/11/28 12:52:18;;;;;;;18.10;9.43;;;7.20;83.10;;;;;;5048709;28;20470;-63
2022/11/28 12:55:11;;;;;;;18.30;9.55;;;7.20;83.20;;;;;;5049352;28;20060;-63
2022/11/28 12:57:46;;;;;;;16.38;9.52;;;7.20;83.10;;;;;;5049401;28;20049;-64
2022/11/28 13:00:18;;;;;;;17.20;8.90;;;7.20;83.20;;;;;;5049102;28;20124;-64
2022/11/28 13:02:59;;;;;;;17.90;9.35;;;7.20;83.20;;;;;;5049532;28;20477;-64
2022/11/28 13:05:38;;;;;;;16.33;8.80;;;7.20;83.20;;;;;;5044014;28;20044;-64
2022/11/28 13:08:26;;;;;;;16.27;9.35;;;7.20;83.30;;;;;;5049109;28;20110;-64